createdAt,value
2022-12-01T00:00:44.324Z,50.02
2022-12-01T00:01:44.484Z,48.24
2022-12-01T00:02:44.416Z,48.44
2022-12-01T00:03:44.299Z,48.31
2022-12-01T00:04:44.303Z,49.41
2022-12-01T00:05:44.289Z,47.71
2022-12-01T00:06:44.299Z,48.65
2022-12-01T00:07:44.326Z,49.33
2022-12-01T00:08:44.265Z,50.24
2022-12-01T00:09:44.255Z,49.79
2022-12-01T00:10:44.246Z,48.28
2022-12-01T00:11:45.266Z,47.15
2022-12-01T00:12:44.237Z,48.95
2022-12-01T00:13:44.221Z,47.37
2022-12-01T00:14:44.240Z,48.46
2022-12-01T00:15:44.209Z,46.49
2022-12-01T00:16:44.250Z,47.34
2022-12-01T00:17:44.216Z,48.55
2022-12-01T00:18:44.184Z,47.67
2022-12-01T00:19:44.180Z,47.90
2022-12-01T00:20:44.181Z,46.60
2022-12-01T00:21:44.170Z,48.49
2022-12-01T00:22:44.177Z,47.56
2022-12-01T00:23:44.148Z,48.05
2022-12-01T00:24:44.149Z,47.33
2022-12-01T00:25:44.137Z,47.13
2022-12-01T00:26:44.134Z,48.75
2022-12-01T00:27:44.148Z,47.42
2022-12-01T00:28:44.121Z,50.40
2022-12-01T00:29:44.120Z,48.65
2022-12-01T00:30:44.109Z,49.88
2022-12-01T00:31:44.162Z,48.15
2022-12-01T00:32:44.117Z,50.77
2022-12-01T00:33:44.091Z,49.37
2022-12-01T00:34:44.076Z,50.37
2022-12-01T00:35:44.068Z,48.14
2022-12-01T00:36:44.068Z,46.01
2022-12-01T00:37:44.048Z,48.68
2022-12-01T00:38:44.063Z,49.25
2022-12-01T00:39:44.041Z,48.70
2022-12-01T00:40:44.029Z,47.43
2022-12-01T00:41:44.020Z,48.41
2022-12-01T00:42:44.009Z,48.61
2022-12-01T00:43:44.023Z,47.08
2022-12-01T00:44:43.997Z,52.33
2022-12-01T00:45:44.067Z,46.73
2022-12-01T00:46:43.990Z,47.54
2022-12-01T00:47:43.984Z,46.83
2022-12-01T00:48:43.985Z,46.61
2022-12-01T00:49:43.972Z,48.49
2022-12-01T00:50:43.962Z,48.23
2022-12-01T00:51:44.001Z,47.55
2022-12-01T00:52:43.948Z,47.94
2022-12-01T00:53:43.941Z,46.61
2022-12-01T00:54:43.942Z,48.07
2022-12-01T00:55:43.929Z,46.43
2022-12-01T00:56:43.941Z,48.76
2022-12-01T00:57:43.917Z,46.65
2022-12-01T00:58:43.896Z,48.91
2022-12-01T00:59:43.902Z,46.31
2022-12-01T01:00:43.893Z,49.13
2022-12-01T01:01:43.952Z,46.98
2022-12-01T01:02:43.973Z,48.72
2022-12-01T01:03:43.886Z,48.25
2022-12-01T01:04:43.858Z,48.64
2022-12-01T01:05:43.874Z,47.59
2022-12-01T01:06:43.853Z,47.05
2022-12-01T01:07:43.935Z,47.33
2022-12-01T01:08:43.839Z,46.91
2022-12-01T01:09:43.835Z,46.30
2022-12-01T01:10:43.822Z,46.40
2022-12-01T01:11:43.825Z,46.78
2022-12-01T01:12:43.816Z,47.70
2022-12-01T01:13:43.816Z,47.38
2022-12-01T01:14:43.796Z,50.72
2022-12-01T01:15:43.798Z,47.05
2022-12-01T01:16:43.907Z,46.59
2022-12-01T01:17:43.783Z,46.36
2022-12-01T01:18:43.819Z,47.42
2022-12-01T01:19:43.766Z,48.58
2022-12-01T01:20:43.747Z,48.36
2022-12-01T01:21:43.745Z,49.04
2022-12-01T01:22:43.760Z,46.83
2022-12-01T01:23:43.760Z,46.17
2022-12-01T01:24:43.749Z,46.67
2022-12-01T01:25:43.719Z,48.52
2022-12-01T01:26:43.724Z,50.09
2022-12-01T01:27:43.705Z,47.66
2022-12-01T01:28:43.706Z,47.79
2022-12-01T01:29:43.708Z,46.83
2022-12-01T01:30:43.720Z,48.74
2022-12-01T01:31:44.672Z,49.13
2022-12-01T01:32:43.677Z,47.10
2022-12-01T01:33:43.672Z,48.67
2022-12-01T01:34:43.675Z,48.05
2022-12-01T01:35:43.657Z,48.09
2022-12-01T01:36:43.652Z,47.32
2022-12-01T01:37:43.649Z,47.01
2022-12-01T01:38:43.641Z,47.88
2022-12-01T01:39:43.645Z,48.45
2022-12-01T01:40:43.624Z,47.49
2022-12-01T01:41:43.611Z,50.21
2022-12-01T01:42:43.620Z,48.22
2022-12-01T01:43:43.608Z,48.13
2022-12-01T01:44:43.612Z,47.44
2022-12-01T01:45:43.613Z,47.03
2022-12-01T01:46:43.600Z,48.39
2022-12-01T01:47:43.573Z,46.18
2022-12-01T01:48:43.588Z,47.58
2022-12-01T01:49:43.560Z,49.19
2022-12-01T01:50:43.564Z,48.02
2022-12-01T01:51:43.548Z,49.19
2022-12-01T01:52:43.541Z,48.97
2022-12-01T01:53:43.535Z,48.09
2022-12-01T01:54:43.549Z,48.91
2022-12-01T01:55:43.544Z,50.01
2022-12-01T01:56:43.513Z,47.30
2022-12-01T01:57:43.500Z,48.25
2022-12-01T01:58:43.500Z,48.00
2022-12-01T01:59:43.493Z,49.62
2022-12-01T02:00:43.543Z,49.80
2022-12-01T02:01:43.514Z,46.44
2022-12-01T02:02:43.535Z,46.55
2022-12-01T02:03:43.456Z,50.45
2022-12-01T02:04:43.461Z,49.23
2022-12-01T02:05:43.456Z,47.80
2022-12-01T02:06:43.480Z,48.36
2022-12-01T02:07:43.469Z,48.92
2022-12-01T02:08:43.433Z,52.48
2022-12-01T02:09:43.419Z,47.82
2022-12-01T02:10:43.412Z,46.97
2022-12-01T02:11:43.439Z,53.17
2022-12-01T02:12:43.400Z,51.51
2022-12-01T02:13:43.401Z,53.02
2022-12-01T02:14:43.396Z,51.25
2022-12-01T02:15:43.380Z,50.40
2022-12-01T02:16:43.394Z,52.64
2022-12-01T02:17:43.397Z,49.79
2022-12-01T02:18:43.351Z,47.10
2022-12-01T02:19:43.352Z,51.34
2022-12-01T02:20:43.352Z,48.84
2022-12-01T02:21:43.335Z,52.30
2022-12-01T02:22:43.355Z,49.05
2022-12-01T02:23:43.328Z,52.71
2022-12-01T02:24:43.312Z,53.24
2022-12-01T02:25:43.309Z,51.69
2022-12-01T02:26:43.312Z,49.61
2022-12-01T02:27:43.291Z,46.78
2022-12-01T02:28:43.291Z,46.95
2022-12-01T02:29:43.301Z,47.14
2022-12-01T02:30:43.292Z,47.15
2022-12-01T02:31:43.272Z,47.31
2022-12-01T02:32:43.268Z,52.22
2022-12-01T02:33:43.251Z,48.74
2022-12-01T02:34:43.252Z,47.54
2022-12-01T02:35:43.243Z,48.47
2022-12-01T02:36:43.236Z,48.76
2022-12-01T02:37:43.231Z,48.64
2022-12-01T02:38:43.240Z,48.30
2022-12-01T02:39:43.219Z,47.24
2022-12-01T02:40:43.220Z,50.86
2022-12-01T02:41:43.213Z,49.32
2022-12-01T02:42:43.206Z,48.51
2022-12-01T02:43:43.205Z,49.17
2022-12-01T02:44:43.175Z,50.64
2022-12-01T02:45:43.232Z,48.41
2022-12-01T02:46:43.167Z,47.96
2022-12-01T02:47:43.165Z,50.03
2022-12-01T02:48:43.175Z,48.26
2022-12-01T02:49:43.159Z,47.52
2022-12-01T02:50:43.151Z,46.84
2022-12-01T02:51:43.135Z,49.15
2022-12-01T02:52:43.132Z,49.14
2022-12-01T02:53:43.135Z,48.52
2022-12-01T02:54:43.132Z,47.65
2022-12-01T02:55:43.112Z,47.70
2022-12-01T02:56:43.091Z,48.80
2022-12-01T02:57:43.099Z,49.76
2022-12-01T02:58:43.095Z,49.08
2022-12-01T02:59:43.079Z,46.69
2022-12-01T03:00:43.101Z,50.54
2022-12-01T03:01:43.138Z,48.88
2022-12-01T03:02:43.210Z,48.96
2022-12-01T03:03:43.063Z,46.71
2022-12-01T03:04:43.058Z,50.11
2022-12-01T03:05:43.040Z,47.42
2022-12-01T03:06:43.051Z,46.62
2022-12-01T03:07:43.064Z,46.00
2022-12-01T03:08:43.027Z,47.60
2022-12-01T03:09:43.014Z,50.11
2022-12-01T03:10:43.015Z,49.09
2022-12-01T03:11:43.026Z,47.58
2022-12-01T03:12:42.996Z,50.42
2022-12-01T03:13:42.987Z,51.30
2022-12-01T03:14:42.991Z,49.72
2022-12-01T03:15:43.037Z,46.25
2022-12-01T03:16:42.991Z,48.73
2022-12-01T03:17:42.958Z,53.71
2022-12-01T03:18:42.954Z,49.77
2022-12-01T03:19:42.958Z,50.00
2022-12-01T03:20:42.958Z,48.43
2022-12-01T03:21:42.941Z,50.51
2022-12-01T03:22:42.940Z,49.60
2022-12-01T03:23:42.922Z,51.76
2022-12-01T03:24:42.922Z,51.06
2022-12-01T03:25:42.919Z,53.07
2022-12-01T03:26:42.918Z,50.96
2022-12-01T03:28:00.557Z,51.04
2022-12-01T03:28:44.897Z,49.90
2022-12-01T03:29:42.893Z,49.04
2022-12-01T03:30:42.883Z,51.40
2022-12-01T03:31:42.933Z,49.61
2022-12-01T03:32:42.900Z,51.57
2022-12-01T03:33:42.854Z,52.85
2022-12-01T03:34:42.854Z,48.81
2022-12-01T03:35:42.862Z,49.59
2022-12-01T03:36:42.837Z,50.21
2022-12-01T03:37:42.824Z,48.16
2022-12-01T03:38:42.859Z,48.90
2022-12-01T03:39:42.821Z,50.02
2022-12-01T03:40:42.817Z,50.18
2022-12-01T03:41:42.822Z,50.09
2022-12-01T03:42:42.801Z,49.17
2022-12-01T03:43:42.809Z,49.84
2022-12-01T03:44:42.845Z,49.47
2022-12-01T03:45:42.786Z,48.45
2022-12-01T03:46:42.838Z,50.75
2022-12-01T03:47:42.784Z,49.94
2022-12-01T03:48:42.776Z,48.31
2022-12-01T03:49:42.781Z,49.97
2022-12-01T03:50:42.754Z,47.49
2022-12-01T03:51:42.750Z,52.28
2022-12-01T03:52:42.742Z,51.81
2022-12-01T03:53:42.746Z,50.40
2022-12-01T03:54:42.754Z,52.95
2022-12-01T03:55:42.778Z,51.06
2022-12-01T03:56:42.713Z,48.01
2022-12-01T03:57:42.744Z,52.09
2022-12-01T03:58:42.698Z,50.94
2022-12-01T03:59:42.757Z,50.74
2022-12-01T04:00:42.706Z,51.88
2022-12-01T04:01:42.712Z,49.92
2022-12-01T04:02:42.720Z,52.48
2022-12-01T04:03:42.668Z,50.58
2022-12-01T04:04:42.685Z,48.68
2022-12-01T04:05:42.658Z,49.54
2022-12-01T04:06:42.642Z,50.04
2022-12-01T04:07:42.651Z,48.86
2022-12-01T04:08:42.629Z,49.13
2022-12-01T04:09:42.644Z,51.65
2022-12-01T04:10:42.629Z,50.94
2022-12-01T04:11:42.597Z,53.18
2022-12-01T04:12:42.610Z,51.96
2022-12-01T04:13:42.590Z,50.19
2022-12-01T04:14:42.588Z,51.47
2022-12-01T04:15:42.605Z,51.03
2022-12-01T04:16:42.593Z,53.70
2022-12-01T04:17:42.565Z,52.80
2022-12-01T04:18:42.562Z,52.36
2022-12-01T04:19:42.556Z,52.25
2022-12-01T04:20:42.553Z,52.31
2022-12-01T04:21:42.598Z,52.93
2022-12-01T04:22:42.537Z,51.67
2022-12-01T04:23:42.533Z,53.63
2022-12-01T04:24:42.525Z,51.95
2022-12-01T04:25:42.521Z,52.03
2022-12-01T04:26:42.513Z,52.82
2022-12-01T04:27:42.513Z,53.10
2022-12-01T04:28:42.504Z,53.16
2022-12-01T04:29:42.493Z,54.32
2022-12-01T04:30:42.493Z,54.05
2022-12-01T04:31:42.512Z,52.44
2022-12-01T04:32:42.482Z,54.68
2022-12-01T04:33:42.473Z,53.08
2022-12-01T04:34:42.469Z,53.81
2022-12-01T04:35:42.457Z,52.40
2022-12-01T04:36:42.453Z,53.50
2022-12-01T04:37:42.450Z,53.59
2022-12-01T04:38:42.450Z,53.03
2022-12-01T04:39:42.429Z,53.00
2022-12-01T04:40:42.442Z,52.89
2022-12-01T04:41:42.419Z,54.26
2022-12-01T04:42:42.409Z,54.49
2022-12-01T04:43:42.407Z,55.18
2022-12-01T04:44:42.393Z,54.28
2022-12-01T04:45:42.397Z,54.12
2022-12-01T04:46:42.441Z,54.85
2022-12-01T04:47:42.377Z,55.01
2022-12-01T04:48:42.374Z,52.72
2022-12-01T04:49:42.358Z,54.07
2022-12-01T04:50:42.366Z,54.33
2022-12-01T04:51:42.351Z,53.71
2022-12-01T04:52:42.349Z,53.92
2022-12-01T04:53:42.328Z,53.73
2022-12-01T04:54:42.332Z,53.77
2022-12-01T04:55:42.329Z,54.41
2022-12-01T04:56:42.317Z,54.16
2022-12-01T04:57:42.322Z,55.68
2022-12-01T04:58:42.306Z,54.58
2022-12-01T04:59:42.303Z,52.77
2022-12-01T05:00:42.356Z,53.03
2022-12-01T05:01:43.372Z,56.10
2022-12-01T05:02:42.305Z,55.02
2022-12-01T05:03:43.277Z,54.55
2022-12-01T05:04:42.273Z,54.85
2022-12-01T05:05:42.261Z,54.10
2022-12-01T05:06:42.255Z,54.36
2022-12-01T05:07:42.395Z,54.22
2022-12-01T05:08:42.244Z,54.21
2022-12-01T05:09:42.235Z,53.00
2022-12-01T05:10:42.221Z,53.73
2022-12-01T05:11:42.213Z,55.73
2022-12-01T05:12:42.215Z,53.50
2022-12-01T05:13:42.229Z,55.05
2022-12-01T05:14:42.225Z,53.69
2022-12-01T05:15:42.189Z,52.85
2022-12-01T05:16:43.239Z,53.72
2022-12-01T05:17:42.185Z,53.37
2022-12-01T05:18:42.246Z,54.11
2022-12-01T05:19:42.177Z,53.65
2022-12-01T05:20:42.161Z,52.14
2022-12-01T05:21:42.149Z,54.02
2022-12-01T05:23:04.854Z,55.41
2022-12-01T05:23:44.141Z,54.40
2022-12-01T05:24:42.148Z,53.21
2022-12-01T05:25:42.114Z,54.68
2022-12-01T05:26:42.122Z,54.55
2022-12-01T05:27:42.113Z,54.96
2022-12-01T05:28:42.107Z,55.10
2022-12-01T05:29:42.111Z,56.84
2022-12-01T05:30:42.091Z,55.52
2022-12-01T05:31:42.140Z,55.21
2022-12-01T05:32:42.075Z,55.17
2022-12-01T05:33:42.068Z,54.79
2022-12-01T05:34:42.072Z,54.84
2022-12-01T05:35:42.082Z,55.48
2022-12-01T05:36:42.052Z,56.86
2022-12-01T05:37:42.041Z,55.28
2022-12-01T05:38:42.041Z,55.29
2022-12-01T05:39:42.040Z,56.09
2022-12-01T05:40:42.017Z,56.53
2022-12-01T05:41:42.025Z,56.55
2022-12-01T05:42:42.013Z,55.34
2022-12-01T05:43:42.008Z,57.24
2022-12-01T05:44:42.216Z,56.32
2022-12-01T05:45:42.054Z,55.77
2022-12-01T05:46:41.981Z,56.33
2022-12-01T05:47:41.980Z,57.56
2022-12-01T05:48:41.978Z,56.19
2022-12-01T05:49:42.004Z,56.08
2022-12-01T05:50:41.972Z,55.96
2022-12-01T05:51:41.949Z,55.00
2022-12-01T05:52:41.940Z,56.75
2022-12-01T05:53:41.960Z,56.20
2022-12-01T05:54:41.933Z,56.46
2022-12-01T05:55:41.949Z,55.31
2022-12-01T05:56:41.920Z,55.45
2022-12-01T05:57:41.910Z,56.02
2022-12-01T05:58:41.913Z,56.78
2022-12-01T05:59:41.896Z,56.51
2022-12-01T06:00:45.703Z,62.14
2022-12-01T06:01:42.942Z,63.07
2022-12-01T06:02:41.872Z,65.41
2022-12-01T06:03:41.921Z,65.70
2022-12-01T06:04:41.870Z,64.07
2022-12-01T06:05:41.865Z,61.41
2022-12-01T06:06:41.849Z,56.01
2022-12-01T06:07:41.897Z,56.43
2022-12-01T06:08:41.828Z,57.07
2022-12-01T06:09:41.848Z,56.25
2022-12-01T06:10:41.837Z,56.89
2022-12-01T06:11:41.814Z,56.48
2022-12-01T06:12:41.808Z,56.95
2022-12-01T06:13:41.809Z,57.03
2022-12-01T06:14:41.795Z,56.40
2022-12-01T06:15:41.841Z,56.28
2022-12-01T06:16:41.817Z,57.40
2022-12-01T06:17:41.780Z,55.51
2022-12-01T06:18:41.774Z,55.70
2022-12-01T06:19:41.745Z,56.58
2022-12-01T06:20:41.749Z,57.18
2022-12-01T06:21:41.738Z,56.06
2022-12-01T06:22:41.749Z,55.17
2022-12-01T06:23:41.720Z,55.66
2022-12-01T06:24:41.720Z,55.64
2022-12-01T06:25:41.710Z,57.52
2022-12-01T06:26:41.718Z,56.62
2022-12-01T06:27:41.753Z,56.94
2022-12-01T06:28:41.691Z,54.26
2022-12-01T06:29:42.379Z,55.73
2022-12-01T06:30:42.693Z,57.89
2022-12-01T06:31:41.685Z,55.78
2022-12-01T06:32:41.680Z,55.64
2022-12-01T06:33:41.642Z,56.12
2022-12-01T06:34:41.656Z,57.28
2022-12-01T06:35:41.639Z,55.44
2022-12-01T06:36:41.635Z,55.80
2022-12-01T06:37:41.627Z,54.37
2022-12-01T06:38:41.635Z,55.94
2022-12-01T06:39:41.601Z,56.85
2022-12-01T06:40:41.624Z,55.67
2022-12-01T06:41:41.601Z,55.83
2022-12-01T06:42:41.598Z,55.91
2022-12-01T06:43:41.590Z,54.81
2022-12-01T06:44:41.601Z,55.14
2022-12-01T06:45:41.620Z,56.47
2022-12-01T06:46:41.569Z,57.63
2022-12-01T06:47:41.559Z,55.83
2022-12-01T06:48:41.551Z,55.95
2022-12-01T06:49:41.547Z,55.49
2022-12-01T06:50:41.555Z,59.30
2022-12-01T06:51:41.532Z,55.47
2022-12-01T06:52:41.531Z,56.11
2022-12-01T06:53:41.519Z,56.65
2022-12-01T06:54:41.518Z,55.93
2022-12-01T06:55:41.511Z,55.73
2022-12-01T06:56:41.513Z,56.16
2022-12-01T06:57:41.499Z,56.33
2022-12-01T06:58:41.498Z,53.65
2022-12-01T06:59:41.479Z,54.23
2022-12-01T07:00:45.392Z,54.30
2022-12-01T07:01:42.556Z,53.95
2022-12-01T07:02:41.551Z,55.71
2022-12-01T07:03:41.464Z,54.29
2022-12-01T07:04:41.459Z,55.39
2022-12-01T07:05:41.453Z,54.43
2022-12-01T07:06:41.444Z,54.48
2022-12-01T07:07:42.525Z,54.14
2022-12-01T07:08:41.440Z,54.99
2022-12-01T07:09:41.420Z,55.99
2022-12-01T07:10:41.395Z,56.04
2022-12-01T07:11:41.433Z,53.50
2022-12-01T07:12:41.446Z,54.68
2022-12-01T07:13:41.421Z,56.91
2022-12-01T07:14:41.406Z,53.15
2022-12-01T07:15:41.386Z,53.39
2022-12-01T07:16:41.421Z,54.13
2022-12-01T07:17:41.364Z,54.08
2022-12-01T07:18:41.397Z,52.73
2022-12-01T07:19:41.354Z,55.58
2022-12-01T07:20:41.355Z,57.17
2022-12-01T07:21:41.380Z,56.76
2022-12-01T07:22:41.350Z,55.00
2022-12-01T07:23:41.362Z,55.65
2022-12-01T07:24:41.349Z,54.06
2022-12-01T07:25:41.318Z,54.72
2022-12-01T07:26:41.412Z,55.62
2022-12-01T07:27:41.292Z,54.32
2022-12-01T07:28:41.302Z,55.62
2022-12-01T07:29:41.281Z,54.59
2022-12-01T07:30:41.309Z,54.94
2022-12-01T07:31:41.292Z,55.17
2022-12-01T07:32:41.270Z,55.54
2022-12-01T07:33:41.268Z,57.23
2022-12-01T07:34:41.256Z,57.05
2022-12-01T07:35:41.243Z,55.53
2022-12-01T07:36:41.239Z,56.88
2022-12-01T07:37:41.229Z,56.26
2022-12-01T07:38:41.213Z,55.71
2022-12-01T07:39:41.230Z,57.58
2022-12-01T07:40:41.222Z,55.74
2022-12-01T07:41:41.205Z,56.31
2022-12-01T07:42:41.191Z,56.18
2022-12-01T07:43:41.196Z,54.57
2022-12-01T07:44:41.206Z,54.89
2022-12-01T07:45:41.220Z,54.79
2022-12-01T07:46:41.214Z,54.80
2022-12-01T07:47:41.171Z,53.71
2022-12-01T07:48:41.157Z,55.07
2022-12-01T07:49:41.258Z,53.28
2022-12-01T07:50:41.149Z,55.07
2022-12-01T07:51:41.136Z,55.83
2022-12-01T07:52:41.148Z,52.90
2022-12-01T07:53:41.125Z,55.10
2022-12-01T07:54:41.252Z,54.37
2022-12-01T07:55:41.126Z,54.45
2022-12-01T07:56:41.126Z,54.66
2022-12-01T07:57:41.093Z,53.64
2022-12-01T07:58:41.084Z,54.82
2022-12-01T07:59:41.100Z,55.28
2022-12-01T08:00:41.065Z,55.05
2022-12-01T08:01:44.426Z,54.29
2022-12-01T08:02:42.131Z,52.24
2022-12-01T08:03:41.073Z,55.76
2022-12-01T08:04:41.054Z,55.68
2022-12-01T08:05:41.044Z,54.60
2022-12-01T08:06:41.037Z,54.06
2022-12-01T08:07:41.146Z,53.52
2022-12-01T08:08:41.062Z,55.48
2022-12-01T08:09:41.117Z,53.67
2022-12-01T08:10:41.005Z,55.75
2022-12-01T08:11:41.000Z,54.11
2022-12-01T08:12:41.996Z,54.78
2022-12-01T08:13:41.008Z,54.57
2022-12-01T08:14:41.090Z,55.33
2022-12-01T08:15:41.053Z,56.52
2022-12-01T08:16:40.969Z,56.39
2022-12-01T08:17:40.961Z,55.28
2022-12-01T08:18:40.948Z,55.31
2022-12-01T08:19:40.976Z,56.82
2022-12-01T08:20:40.992Z,55.86
2022-12-01T08:21:40.941Z,55.36
2022-12-01T08:22:40.936Z,56.38
2022-12-01T08:23:40.932Z,56.03
2022-12-01T08:24:40.920Z,55.04
2022-12-01T08:25:40.901Z,55.64
2022-12-01T08:26:40.933Z,54.13
2022-12-01T08:27:40.908Z,54.43
2022-12-01T08:28:40.896Z,55.43
2022-12-01T08:29:40.888Z,54.79
2022-12-01T08:30:40.992Z,56.34
2022-12-01T08:31:41.002Z,54.97
2022-12-01T08:32:40.886Z,54.52
2022-12-01T08:33:40.866Z,55.62
2022-12-01T08:34:40.850Z,55.97
2022-12-01T08:35:40.850Z,55.47
2022-12-01T08:36:40.853Z,57.36
2022-12-01T08:37:40.842Z,56.27
2022-12-01T08:38:40.826Z,53.58
2022-12-01T08:39:40.829Z,53.85
2022-12-01T08:40:40.905Z,55.03
2022-12-01T08:41:40.806Z,55.35
2022-12-01T08:42:41.012Z,54.29
2022-12-01T08:43:57.379Z,53.78
2022-12-01T08:44:42.857Z,55.28
2022-12-01T08:45:40.784Z,56.09
2022-12-01T08:46:40.833Z,53.40
2022-12-01T08:47:40.793Z,55.54
2022-12-01T08:48:40.767Z,53.99
2022-12-01T08:49:40.760Z,53.89
2022-12-01T08:50:40.772Z,54.44
2022-12-01T08:51:40.747Z,55.05
2022-12-01T08:52:40.748Z,54.79
2022-12-01T08:53:45.303Z,53.85
2022-12-01T08:54:42.741Z,54.60
2022-12-01T08:55:40.732Z,56.81
2022-12-01T08:56:40.712Z,54.33
2022-12-01T08:57:40.709Z,55.33
2022-12-01T08:58:40.692Z,55.22
2022-12-01T08:59:40.712Z,54.01
2022-12-01T09:00:40.685Z,56.65
2022-12-01T09:01:40.707Z,54.69
2022-12-01T09:02:40.706Z,53.99
2022-12-01T09:03:40.668Z,54.86
2022-12-01T09:04:40.658Z,55.32
2022-12-01T09:05:40.660Z,54.34
2022-12-01T09:06:40.698Z,53.09
2022-12-01T09:07:40.703Z,52.84
2022-12-01T09:08:40.625Z,52.32
2022-12-01T09:09:40.620Z,55.00
2022-12-01T09:10:40.648Z,55.21
2022-12-01T09:11:40.621Z,53.43
2022-12-01T09:12:40.604Z,52.45
2022-12-01T09:13:40.596Z,53.24
2022-12-01T09:14:40.593Z,55.94
2022-12-01T09:15:40.593Z,57.99
2022-12-01T09:16:40.645Z,54.84
2022-12-01T09:17:40.567Z,53.51
2022-12-01T09:18:40.564Z,54.50
2022-12-01T09:19:40.560Z,54.40
2022-12-01T09:20:40.546Z,52.70
2022-12-01T09:21:40.549Z,54.67
2022-12-01T09:22:40.529Z,55.83
2022-12-01T09:23:40.551Z,54.53
2022-12-01T09:24:40.526Z,53.93
2022-12-01T09:25:40.519Z,53.57
2022-12-01T09:26:40.531Z,53.06
2022-12-01T09:27:40.518Z,54.16
2022-12-01T09:28:40.511Z,53.60
2022-12-01T09:29:40.493Z,54.34
2022-12-01T09:30:40.493Z,56.30
2022-12-01T09:31:40.574Z,55.82
2022-12-01T09:32:40.490Z,54.72
2022-12-01T09:33:40.470Z,55.67
2022-12-01T09:34:40.463Z,64.17
2022-12-01T09:35:40.451Z,61.87
2022-12-01T09:36:40.450Z,54.47
2022-12-01T09:37:40.481Z,55.77
2022-12-01T09:38:40.438Z,53.81
2022-12-01T09:39:40.454Z,54.46
2022-12-01T09:40:40.429Z,54.09
2022-12-01T09:41:40.418Z,54.64
2022-12-01T09:42:40.412Z,54.06
2022-12-01T09:43:40.413Z,53.44
2022-12-01T09:44:40.394Z,54.25
2022-12-01T09:45:40.385Z,54.54
2022-12-01T09:46:40.454Z,53.22
2022-12-01T09:47:40.401Z,52.88
2022-12-01T09:48:40.370Z,53.50
2022-12-01T09:49:40.373Z,53.66
2022-12-01T09:50:40.354Z,54.85
2022-12-01T09:51:40.355Z,54.29
2022-12-01T09:52:40.345Z,55.25
2022-12-01T09:53:40.331Z,53.76
2022-12-01T09:54:40.337Z,55.64
2022-12-01T09:55:40.379Z,54.87
2022-12-01T09:56:40.314Z,54.34
2022-12-01T09:57:40.297Z,54.07
2022-12-01T09:58:40.330Z,52.70
2022-12-01T09:59:40.307Z,53.67
2022-12-01T10:00:40.352Z,52.34
2022-12-01T10:01:41.352Z,53.32
2022-12-01T10:02:40.289Z,55.04
2022-12-01T10:03:40.291Z,53.05
2022-12-01T10:04:40.274Z,54.37
2022-12-01T10:05:56.620Z,53.28
2022-12-01T10:06:42.312Z,55.20
2022-12-01T10:07:40.348Z,53.23
2022-12-01T10:08:40.246Z,53.72
2022-12-01T10:09:40.243Z,55.45
2022-12-01T10:10:40.229Z,53.61
2022-12-01T10:11:40.226Z,53.30
2022-12-01T10:12:40.217Z,52.75
2022-12-01T10:13:42.742Z,55.35
2022-12-01T10:14:40.206Z,53.63
2022-12-01T10:15:40.203Z,53.05
2022-12-01T10:16:40.246Z,52.32
2022-12-01T10:17:40.181Z,51.53
2022-12-01T10:18:40.170Z,56.83
2022-12-01T10:19:40.171Z,54.43
2022-12-01T10:20:40.186Z,53.08
2022-12-01T10:21:40.151Z,52.37
2022-12-01T10:22:40.179Z,52.43
2022-12-01T10:23:40.161Z,55.78
2022-12-01T10:24:40.130Z,53.70
2022-12-01T10:25:40.125Z,52.78
2022-12-01T10:26:40.120Z,53.82
2022-12-01T10:27:40.110Z,53.93
2022-12-01T10:28:40.107Z,53.14
2022-12-01T10:29:43.745Z,56.65
2022-12-01T10:30:41.114Z,53.35
2022-12-01T10:31:40.129Z,55.22
2022-12-01T10:32:40.070Z,55.29
2022-12-01T10:33:40.066Z,54.74
2022-12-01T10:34:40.058Z,53.68
2022-12-01T10:35:40.057Z,55.04
2022-12-01T10:36:40.071Z,53.82
2022-12-01T10:37:40.085Z,55.38
2022-12-01T10:38:40.041Z,55.05
2022-12-01T10:39:40.032Z,54.15
2022-12-01T10:40:40.006Z,53.51
2022-12-01T10:41:40.039Z,55.69
2022-12-01T10:42:40.004Z,55.90
2022-12-01T10:43:40.024Z,54.08
2022-12-01T10:44:39.998Z,56.11
2022-12-01T10:45:40.103Z,53.28
2022-12-01T10:46:39.987Z,53.08
2022-12-01T10:47:39.971Z,54.29
2022-12-01T10:48:39.966Z,53.97
2022-12-01T10:49:39.962Z,52.85
2022-12-01T10:50:39.958Z,53.00
2022-12-01T10:51:39.949Z,53.03
2022-12-01T10:52:39.945Z,54.85
2022-12-01T10:53:39.935Z,54.14
2022-12-01T10:54:39.952Z,55.99
2022-12-01T10:55:43.471Z,53.58
2022-12-01T10:56:40.920Z,54.80
2022-12-01T10:57:39.915Z,53.62
2022-12-01T10:58:39.906Z,54.04
2022-12-01T10:59:39.939Z,61.52
2022-12-01T11:01:42.002Z,67.69
2022-12-01T11:02:40.027Z,60.09
2022-12-01T11:03:39.901Z,65.09
2022-12-01T11:04:39.894Z,68.22
2022-12-01T11:05:39.851Z,60.09
2022-12-01T11:06:39.862Z,56.46
2022-12-01T11:07:39.873Z,55.17
2022-12-01T11:08:40.838Z,53.03
2022-12-01T11:09:39.843Z,53.58
2022-12-01T11:10:39.846Z,55.47
2022-12-01T11:11:39.811Z,53.46
2022-12-01T11:12:39.813Z,55.47
2022-12-01T11:13:39.820Z,68.86
2022-12-01T11:14:39.807Z,75.42
2022-12-01T11:15:39.821Z,63.75
2022-12-01T11:16:39.914Z,67.69
2022-12-01T11:17:39.790Z,70.52
2022-12-01T11:18:39.826Z,59.18
2022-12-01T11:19:39.940Z,54.79
2022-12-01T11:20:39.804Z,53.14
2022-12-01T11:21:39.770Z,52.59
2022-12-01T11:22:39.772Z,55.99
2022-12-01T11:23:39.736Z,53.72
2022-12-01T11:24:39.745Z,53.00
2022-12-01T11:25:39.734Z,53.00
2022-12-01T11:26:39.709Z,52.39
2022-12-01T11:27:39.789Z,52.09
2022-12-01T11:28:39.713Z,52.35
2022-12-01T11:29:39.701Z,52.50
2022-12-01T11:30:39.698Z,52.57
2022-12-01T11:31:39.731Z,55.34
2022-12-01T11:32:39.782Z,54.08
2022-12-01T11:33:39.688Z,54.43
2022-12-01T11:34:39.665Z,53.81
2022-12-01T11:35:39.669Z,54.11
2022-12-01T11:36:39.661Z,53.63
2022-12-01T11:37:39.652Z,54.91
2022-12-01T11:38:39.671Z,55.16
2022-12-01T11:39:39.632Z,55.05
2022-12-01T11:40:39.650Z,54.96
2022-12-01T11:41:39.637Z,55.78
2022-12-01T11:42:39.616Z,69.54
2022-12-01T11:43:43.718Z,53.87
2022-12-01T11:44:51.369Z,54.36
2022-12-01T11:45:41.631Z,54.01
2022-12-01T11:46:46.334Z,54.39
2022-12-01T11:47:41.589Z,52.28
2022-12-01T11:48:39.578Z,52.66
2022-12-01T11:49:45.510Z,53.97
2022-12-01T11:50:41.564Z,54.37
2022-12-01T11:51:39.591Z,53.96
2022-12-01T11:52:39.549Z,53.05
2022-12-01T11:53:40.549Z,54.00
2022-12-01T11:54:39.539Z,52.42
2022-12-01T11:55:39.529Z,54.95
2022-12-01T11:56:39.566Z,53.97
2022-12-01T11:57:39.520Z,52.57
2022-12-01T11:58:39.574Z,53.72
2022-12-01T11:59:39.524Z,52.74
2022-12-01T12:00:40.489Z,53.52
2022-12-01T12:01:39.514Z,55.63
2022-12-01T12:02:39.516Z,52.84
2022-12-01T12:03:39.524Z,53.23
2022-12-01T12:04:39.508Z,55.32
2022-12-01T12:05:39.474Z,53.33
2022-12-01T12:06:40.438Z,53.60
2022-12-01T12:07:40.514Z,54.11
2022-12-01T12:08:39.512Z,54.26
2022-12-01T12:09:45.053Z,53.20
2022-12-01T12:10:40.467Z,53.22
2022-12-01T12:11:39.440Z,54.88
2022-12-01T12:12:39.421Z,54.50
2022-12-01T12:13:39.396Z,53.23
2022-12-01T12:14:39.402Z,55.39
2022-12-01T12:15:39.480Z,53.48
2022-12-01T12:16:39.382Z,54.92
2022-12-01T12:17:39.431Z,55.69
2022-12-01T12:18:39.376Z,53.49
2022-12-01T12:20:06.680Z,55.01
2022-12-01T12:20:41.356Z,53.63
2022-12-01T12:21:40.353Z,53.27
2022-12-01T12:22:39.348Z,54.60
2022-12-01T12:23:39.344Z,54.58
2022-12-01T12:24:39.329Z,52.94
2022-12-01T12:25:39.336Z,52.41
2022-12-01T12:26:39.320Z,53.69
2022-12-01T12:27:39.305Z,52.27
2022-12-01T12:28:39.373Z,51.92
2022-12-01T12:29:39.316Z,53.88
2022-12-01T12:30:39.311Z,54.33
2022-12-01T12:31:39.286Z,54.40
2022-12-01T12:32:39.280Z,55.12
2022-12-01T12:33:39.276Z,54.54
2022-12-01T12:34:39.271Z,52.70
2022-12-01T12:35:39.341Z,53.35
2022-12-01T12:36:39.292Z,56.27
2022-12-01T12:37:39.284Z,55.50
2022-12-01T12:38:39.248Z,54.47
2022-12-01T12:39:39.261Z,51.73
2022-12-01T12:40:39.233Z,53.68
2022-12-01T12:41:39.233Z,55.28
2022-12-01T12:42:39.205Z,55.96
2022-12-01T12:43:39.209Z,58.20
2022-12-01T12:44:39.196Z,53.90
2022-12-01T12:45:39.181Z,56.31
2022-12-01T12:46:39.212Z,57.06
2022-12-01T12:47:39.164Z,55.82
2022-12-01T12:49:03.599Z,54.25
2022-12-01T12:49:41.176Z,54.22
2022-12-01T12:50:39.145Z,56.31
2022-12-01T12:51:39.142Z,55.38
2022-12-01T12:52:39.119Z,52.91
2022-12-01T12:53:39.190Z,53.31